Terminal Aerodrome Forecast
Issued by NWS Upton, NY

Home | Current Version | Previous Version | Text Only | Print | Product List | Glossary On
Versions: 1 2 3 4 5 6 7 8 9 10 11 12 13 14 15 16 17 18 19 20 21 22 23 24 25
692
FTUS41 KOKX 132037 AAA
TAFLGA
TAF AMD
KLGA 132037Z 1321/1418 31025G36KT P6SM SCT070
      TEMPO 1321/1324 BKN050
     FM140400 31021G30KT P6SM SKC
     FM141100 32016G25KT P6SM SKC
     FM141600 32013G20KT P6SM SKC=

USA.gov is the U.S. government's official web portal to all federal, state and local government web resources and services.